Time;durP1;ratioP1;P1;durP2;ratioP2;P2;SDS_P1;SDS_P2;PMS_P1;PMS_P2;Temp;Humidity;BMP_temperature;BMP_pressure;BME280_temperature;BME280_humidity;BME280_pressure;Samples;Min_cycle;Max_cycle;Signal;HPM_P1;HPM_P2
2023/10/29 00:00:45;;;;;;;7.40;2.47;;;;;;;;;;4979408;28;21239;-70
2023/10/29 00:03:11;;;;;;;5.35;2.80;;;;;;;;;;4981231;28;20026;-69
2023/10/29 00:05:37;;;;;;;5.20;2.70;;;;;;;;;;4981466;28;20034;-70
2023/10/29 00:08:03;;;;;;;8.02;3.00;;;;;;;;;;4981271;28;20034;-71
2023/10/29 00:10:29;;;;;;;6.55;2.90;;;;;;;;;;4980518;28;20034;-71
2023/10/29 00:12:55;;;;;;;6.63;2.65;;;;;;;;;;4980191;28;20046;-71
2023/10/29 00:15:21;;;;;;;5.32;2.42;;;;;;;;;;4980904;28;20029;-71
2023/10/29 00:17:47;;;;;;;6.95;2.72;;;;;;;;;;4979769;28;20062;-72
2023/10/29 00:20:14;;;;;;;5.65;2.65;;;;;;;;;;4982156;28;20038;-70
2023/10/29 00:22:41;;;;;;;5.47;2.50;;;;;;;;;;4979252;28;20030;-72
2023/10/29 00:25:07;;;;;;;5.40;2.63;;;;;;;;;;4981499;28;20104;-73
2023/10/29 00:27:33;;;;;;;7.32;2.92;;;;;;;;;;4979830;28;20026;-71
2023/10/29 00:29:59;;;;;;;5.80;2.70;;;;;;;;;;4982381;28;20030;-70
2023/10/29 00:32:25;;;;;;;6.35;2.80;;;;;;;;;;4986110;28;20026;-71
2023/10/29 00:34:51;;;;;;;5.82;2.47;;;;;;;;;;4983756;28;20240;-71
2023/10/29 00:37:17;;;;;;;5.78;2.47;;;;;;;;;;4981520;28;20107;-70
2023/10/29 00:39:43;;;;;;;5.78;2.85;;;;;;;;;;4980769;28;20042;-71
2023/10/29 00:42:10;;;;;;;6.60;2.85;;;;;;;;;;4983132;28;20049;-71
2023/10/29 00:44:36;;;;;;;6.05;3.00;;;;;;;;;;4980447;28;20072;-71
2023/10/29 00:47:03;;;;;;;7.70;2.40;;;;;;;;;;4984587;28;20035;-70
2023/10/29 00:49:29;;;;;;;6.90;2.70;;;;;;;;;;4981805;28;20052;-70
2023/10/29 00:51:55;;;;;;;5.75;2.55;;;;;;;;;;4996219;28;20029;-70
2023/10/29 00:54:21;;;;;;;5.93;2.80;;;;;;;;;;4986010;28;20119;-70
2023/10/29 00:56:47;;;;;;;4.57;2.65;;;;;;;;;;4983439;28;20062;-70
2023/10/29 00:59:14;;;;;;;4.10;2.47;;;;;;;;;;4992799;28;20061;-69
2023/10/29 01:01:41;;;;;;;4.60;2.60;;;;;;;;;;4981643;28;20036;-72
2023/10/29 01:04:08;;;;;;;4.97;2.47;;;;;;;;;;4983755;28;20032;-71
2023/10/29 01:06:38;;;;;;;5.43;2.78;;;;;;;;;;4982236;28;20030;-71
2023/10/29 01:09:05;;;;;;;6.43;2.50;;;;;;;;;;4987301;28;20045;-71
2023/10/29 01:11:32;;;;;;;5.88;2.60;;;;;;;;;;4986021;28;20034;-71
2023/10/29 01:13:58;;;;;;;5.22;2.60;;;;;;;;;;4983557;28;20599;-72
2023/10/29 01:16:24;;;;;;;4.38;2.40;;;;;;;;;;4982416;28;20143;-72
2023/10/29 01:18:51;;;;;;;4.70;2.20;;;;;;;;;;4983351;28;20096;-72
2023/10/29 01:21:17;;;;;;;5.05;2.45;;;;;;;;;;4983140;28;20053;-71
2023/10/29 01:23:43;;;;;;;3.65;2.30;;;;;;;;;;4982589;28;20026;-73
2023/10/29 01:26:09;;;;;;;4.85;2.50;;;;;;;;;;4981352;28;20029;-71
2023/10/29 01:28:35;;;;;;;5.28;2.58;;;;;;;;;;4981486;28;20033;-71
2023/10/29 01:31:02;;;;;;;4.80;2.55;;;;;;;;;;4981483;28;20043;-71
2023/10/29 01:33:28;;;;;;;5.03;2.58;;;;;;;;;;4999109;28;20049;-71
2023/10/29 01:35:54;;;;;;;7.90;3.00;;;;;;;;;;4979670;28;20042;-71
2023/10/29 01:38:20;;;;;;;6.97;3.08;;;;;;;;;;4991092;28;20038;-71
2023/10/29 01:40:46;;;;;;;5.10;2.60;;;;;;;;;;4981636;28;20041;-71
2023/10/29 01:43:12;;;;;;;4.88;2.70;;;;;;;;;;4984844;28;20049;-71
2023/10/29 01:45:38;;;;;;;4.55;2.55;;;;;;;;;;4980970;28;20045;-72
2023/10/29 01:48:04;;;;;;;5.40;2.55;;;;;;;;;;4981201;28;20045;-72
2023/10/29 01:50:30;;;;;;;5.85;2.58;;;;;;;;;;4980026;28;20124;-72
2023/10/29 01:52:57;;;;;;;5.78;3.00;;;;;;;;;;4977441;28;20034;-71
2023/10/29 01:55:23;;;;;;;5.18;3.10;;;;;;;;;;4981509;28;20678;-71
2023/10/29 01:57:49;;;;;;;6.13;3.22;;;;;;;;;;4978589;28;20038;-71
2023/10/29 02:00:15;;;;;;;6.47;3.58;;;;;;;;;;4980801;28;20117;-72
2023/10/29 02:02:42;;;;;;;9.85;3.65;;;;;;;;;;4981838;28;20118;-71
2023/10/29 02:05:08;;;;;;;10.45;4.43;;;;;;;;;;4978630;28;20027;-71
2023/10/29 02:07:34;;;;;;;8.25;4.05;;;;;;;;;;4980311;28;20026;-71
2023/10/29 02:10:00;;;;;;;6.30;3.70;;;;;;;;;;4991731;28;21867;-71
2023/10/29 02:12:26;;;;;;;8.77;3.20;;;;;;;;;;4981751;28;20045;-71
2023/10/29 02:14:52;;;;;;;8.35;3.45;;;;;;;;;;4978541;28;20081;-72
2023/10/29 02:17:18;;;;;;;6.45;2.67;;;;;;;;;;4980288;28;20037;-71
2023/10/29 02:19:44;;;;;;;6.55;2.78;;;;;;;;;;4977949;28;20098;-70
2023/10/29 02:22:10;;;;;;;6.25;2.58;;;;;;;;;;4980282;28;21753;-71
2023/10/29 02:24:36;;;;;;;6.63;2.58;;;;;;;;;;4978127;28;21341;-71
2023/10/29 02:27:02;;;;;;;5.95;2.72;;;;;;;;;;4983890;28;20066;-71
2023/10/29 02:29:29;;;;;;;4.68;2.40;;;;;;;;;;4978483;28;20058;-72
2023/10/29 02:31:55;;;;;;;6.20;2.50;;;;;;;;;;4979037;28;20117;-71
2023/10/29 02:34:21;;;;;;;10.95;3.67;;;;;;;;;;4980493;28;20456;-71
2023/10/29 02:36:48;;;;;;;7.70;3.13;;;;;;;;;;4979506;28;20104;-71
2023/10/29 02:39:14;;;;;;;6.13;2.90;;;;;;;;;;4979789;28;20033;-71
2023/10/29 02:41:40;;;;;;;4.75;2.40;;;;;;;;;;4998153;28;20048;-71
2023/10/29 02:44:06;;;;;;;8.60;2.85;;;;;;;;;;4979027;28;20125;-71
2023/10/29 02:46:32;;;;;;;6.47;2.30;;;;;;;;;;4982686;28;20034;-71
2023/10/29 02:48:58;;;;;;;6.43;2.45;;;;;;;;;;4982339;28;20042;-71
2023/10/29 02:51:24;;;;;;;5.20;2.20;;;;;;;;;;4993919;28;20440;-71
2023/10/29 02:53:50;;;;;;;5.70;2.08;;;;;;;;;;4994104;28;20037;-71
2023/10/29 02:56:16;;;;;;;5.28;1.90;;;;;;;;;;4995173;28;20042;-71
2023/10/29 02:58:42;;;;;;;4.18;2.20;;;;;;;;;;4982174;28;20146;-71
2023/10/29 03:01:09;;;;;;;4.35;2.00;;;;;;;;;;4982960;28;20552;-71
2023/10/29 03:03:38;;;;;;;6.15;2.30;;;;;;;;;;4981234;28;21217;-71
2023/10/29 03:06:05;;;;;;;6.10;2.20;;;;;;;;;;4982295;28;21669;-71
2023/10/29 03:08:31;;;;;;;4.10;2.10;;;;;;;;;;4983432;28;20037;-71
2023/10/29 03:10:57;;;;;;;8.30;2.20;;;;;;;;;;4982078;28;20053;-71
2023/10/29 03:13:23;;;;;;;6.43;2.00;;;;;;;;;;4983913;28;20048;-71
2023/10/29 03:15:49;;;;;;;5.32;2.15;;;;;;;;;;4982547;28;20034;-71
2023/10/29 03:18:15;;;;;;;6.95;1.95;;;;;;;;;;5001662;28;20042;-70
2023/10/29 03:20:42;;;;;;;11.20;2.03;;;;;;;;;;4974077;28;20034;-70
2023/10/29 03:23:08;;;;;;;4.90;2.00;;;;;;;;;;4982698;28;20037;-69
2023/10/29 03:25:34;;;;;;;3.97;1.60;;;;;;;;;;4983938;28;20029;-71
2023/10/29 03:28:00;;;;;;;4.47;2.00;;;;;;;;;;4983216;28;20026;-72
2023/10/29 03:30:26;;;;;;;5.72;2.08;;;;;;;;;;4980844;28;20111;-71
2023/10/29 03:32:52;;;;;;;5.00;1.70;;;;;;;;;;4983053;28;20041;-71
2023/10/29 03:35:18;;;;;;;5.82;2.35;;;;;;;;;;4982291;28;20030;-70
2023/10/29 03:37:45;;;;;;;5.82;2.30;;;;;;;;;;4980284;28;20157;-70
2023/10/29 03:40:11;;;;;;;7.05;1.90;;;;;;;;;;4982361;28;20065;-71
2023/10/29 03:42:37;;;;;;;4.88;1.63;;;;;;;;;;4993042;28;20054;-71
2023/10/29 03:45:03;;;;;;;5.30;1.55;;;;;;;;;;4982735;28;20057;-71
2023/10/29 03:47:29;;;;;;;5.28;1.50;;;;;;;;;;4980633;28;20030;-71
2023/10/29 03:49:55;;;;;;;3.20;1.35;;;;;;;;;;4986328;28;21144;-71
2023/10/29 03:52:22;;;;;;;3.60;1.30;;;;;;;;;;4981692;28;20038;-71
2023/10/29 03:54:48;;;;;;;3.65;1.27;;;;;;;;;;4999531;28;20034;-72
2023/10/29 03:57:14;;;;;;;4.90;1.65;;;;;;;;;;4984564;28;20056;-71
2023/10/29 03:59:40;;;;;;;4.47;1.40;;;;;;;;;;4978904;28;20465;-71
2023/10/29 04:02:07;;;;;;;4.55;1.13;;;;;;;;;;4980719;28;20083;-71
2023/10/29 04:04:33;;;;;;;4.15;1.10;;;;;;;;;;4980901;28;20026;-71
2023/10/29 04:07:00;;;;;;;5.07;1.20;;;;;;;;;;4983619;28;20112;-71
2023/10/29 04:09:26;;;;;;;3.72;1.15;;;;;;;;;;4980349;28;20040;-71
2023/10/29 04:11:53;;;;;;;3.20;1.00;;;;;;;;;;4983387;28;20038;-71
2023/10/29 04:14:19;;;;;;;2.70;1.15;;;;;;;;;;4978798;28;20504;-70
2023/10/29 04:16:45;;;;;;;5.35;1.00;;;;;;;;;;4981398;28;20036;-71
2023/10/29 04:19:11;;;;;;;4.15;1.17;;;;;;;;;;4981954;28;20033;-70
2023/10/29 04:21:37;;;;;;;4.13;1.10;;;;;;;;;;4979996;28;20036;-71
2023/10/29 04:24:03;;;;;;;5.20;1.65;;;;;;;;;;4980629;28;20061;-71
2023/10/29 04:26:30;;;;;;;18.67;1.80;;;;;;;;;;4980256;28;20068;-71
2023/10/29 04:28:57;;;;;;;3.15;1.05;;;;;;;;;;4981537;28;20065;-71
2023/10/29 04:31:23;;;;;;;4.40;1.05;;;;;;;;;;4980149;28;20116;-72
2023/10/29 04:33:49;;;;;;;3.80;1.10;;;;;;;;;;4980326;28;20088;-70
2023/10/29 04:36:21;;;;;;;3.67;1.05;;;;;;;;;;4982433;28;20573;-71
2023/10/29 04:38:47;;;;;;;5.80;1.23;;;;;;;;;;4980779;28;20575;-71
2023/10/29 04:41:13;;;;;;;5.07;0.98;;;;;;;;;;4981308;28;20033;-73
2023/10/29 04:43:41;;;;;;;4.35;0.80;;;;;;;;;;4976527;28;20049;-71
2023/10/29 04:46:08;;;;;;;2.22;0.63;;;;;;;;;;4980301;28;20030;-71
2023/10/29 04:48:34;;;;;;;5.20;0.70;;;;;;;;;;4979109;28;20018;-72
2023/10/29 04:51:01;;;;;;;2.35;0.57;;;;;;;;;;4982626;28;20046;-71
2023/10/29 04:53:27;;;;;;;6.70;1.15;;;;;;;;;;4981489;28;21004;-72
2023/10/29 04:55:53;;;;;;;2.70;0.60;;;;;;;;;;4983423;28;20042;-71
2023/10/29 04:58:19;;;;;;;4.13;0.57;;;;;;;;;;4981452;28;20030;-72
2023/10/29 05:00:45;;;;;;;1.90;0.47;;;;;;;;;;4979652;28;20050;-72
2023/10/29 05:03:11;;;;;;;0.77;0.50;;;;;;;;;;4982481;28;20069;-72
2023/10/29 05:05:37;;;;;;;3.25;0.40;;;;;;;;;;4981247;28;20077;-72
2023/10/29 05:08:03;;;;;;;1.45;0.52;;;;;;;;;;4981752;28;20034;-72
2023/10/29 05:10:30;;;;;;;2.45;0.60;;;;;;;;;;4979817;28;20422;-72
2023/10/29 05:12:56;;;;;;;2.83;0.82;;;;;;;;;;4980892;28;20112;-71
2023/10/29 05:15:22;;;;;;;1.77;0.55;;;;;;;;;;4978744;28;20158;-72
2023/10/29 05:17:48;;;;;;;1.55;0.50;;;;;;;;;;4982405;28;20926;-71
2023/10/29 05:20:15;;;;;;;1.67;0.47;;;;;;;;;;4978144;28;20037;-71
2023/10/29 05:22:41;;;;;;;3.83;0.60;;;;;;;;;;4980396;28;20109;-71
2023/10/29 05:25:08;;;;;;;3.75;0.70;;;;;;;;;;4980096;28;20108;-71
2023/10/29 05:27:35;;;;;;;3.45;0.77;;;;;;;;;;4978381;28;20108;-71
2023/10/29 05:30:01;;;;;;;3.22;0.60;;;;;;;;;;4981146;28;20433;-72
2023/10/29 05:32:28;;;;;;;3.60;0.70;;;;;;;;;;4980824;28;20042;-71
2023/10/29 05:34:55;;;;;;;2.45;0.95;;;;;;;;;;4979882;28;21908;-71
2023/10/29 05:37:21;;;;;;;6.65;2.05;;;;;;;;;;4979923;28;20117;-72
2023/10/29 05:39:47;;;;;;;4.00;0.70;;;;;;;;;;4981179;28;20080;-72
2023/10/29 05:42:14;;;;;;;4.57;0.93;;;;;;;;;;4980510;28;20026;-71
2023/10/29 05:44:40;;;;;;;6.97;1.10;;;;;;;;;;4981238;28;20033;-72
2023/10/29 05:47:06;;;;;;;2.38;0.63;;;;;;;;;;4980545;28;20404;-72
2023/10/29 05:49:32;;;;;;;3.15;0.70;;;;;;;;;;4976857;28;20144;-71
2023/10/29 05:51:58;;;;;;;5.60;0.70;;;;;;;;;;4980346;28;20034;-72
2023/10/29 05:54:24;;;;;;;2.28;0.70;;;;;;;;;;4989746;28;20104;-72
2023/10/29 05:56:50;;;;;;;4.97;0.82;;;;;;;;;;4980205;28;21114;-72
2023/10/29 05:59:16;;;;;;;3.40;0.50;;;;;;;;;;4978150;28;20050;-71
2023/10/29 06:01:42;;;;;;;5.38;1.20;;;;;;;;;;4980005;28;20190;-72
2023/10/29 06:04:08;;;;;;;2.53;0.70;;;;;;;;;;4979386;28;20057;-71
2023/10/29 06:06:34;;;;;;;3.40;0.77;;;;;;;;;;4979603;28;20036;-72
2023/10/29 06:09:00;;;;;;;3.60;0.80;;;;;;;;;;4979524;28;20080;-72
2023/10/29 06:11:26;;;;;;;3.33;1.17;;;;;;;;;;4978412;28;20085;-71
2023/10/29 06:13:53;;;;;;;5.07;1.23;;;;;;;;;;4979754;28;20124;-71
2023/10/29 06:16:19;;;;;;;4.50;0.70;;;;;;;;;;4977458;28;20035;-70
2023/10/29 06:18:46;;;;;;;2.28;0.40;;;;;;;;;;4980034;28;20505;-71
2023/10/29 06:21:12;;;;;;;3.80;0.77;;;;;;;;;;4981036;28;20081;-71
2023/10/29 06:23:38;;;;;;;4.25;0.60;;;;;;;;;;4980382;28;20069;-71
2023/10/29 06:26:08;;;;;;;2.42;0.50;;;;;;;;;;4980971;28;20034;-70
2023/10/29 06:28:34;;;;;;;3.53;0.90;;;;;;;;;;4979643;28;20033;-71
2023/10/29 06:31:00;;;;;;;2.15;0.45;;;;;;;;;;4978088;28;20044;-71
2023/10/29 06:33:26;;;;;;;3.08;0.63;;;;;;;;;;4978728;28;20099;-71
2023/10/29 06:35:57;;;;;;;2.45;0.82;;;;;;;;;;4979365;28;20100;-71
2023/10/29 06:38:23;;;;;;;3.85;0.82;;;;;;;;;;4979247;28;20163;-71
2023/10/29 06:40:50;;;;;;;5.03;0.90;;;;;;;;;;4979967;28;20435;-70
2023/10/29 06:43:16;;;;;;;8.20;0.90;;;;;;;;;;4979877;28;21222;-71
2023/10/29 06:45:42;;;;;;;6.10;1.30;;;;;;;;;;4979407;28;20482;-70
2023/10/29 06:48:08;;;;;;;3.13;0.80;;;;;;;;;;4978798;28;20089;-71
2023/10/29 06:50:35;;;;;;;2.80;0.75;;;;;;;;;;4978252;28;20076;-71
2023/10/29 06:53:02;;;;;;;9.00;1.10;;;;;;;;;;4978306;28;20038;-70
2023/10/29 06:55:28;;;;;;;4.90;1.27;;;;;;;;;;4978310;28;20045;-71
2023/10/29 06:57:54;;;;;;;3.67;0.77;;;;;;;;;;4979378;28;20046;-71
2023/10/29 07:00:20;;;;;;;4.63;0.90;;;;;;;;;;4979571;28;20121;-70
2023/10/29 07:02:47;;;;;;;4.28;0.93;;;;;;;;;;4978609;28;20034;-70
2023/10/29 07:05:13;;;;;;;4.97;1.38;;;;;;;;;;4979590;28;20026;-70
2023/10/29 07:07:39;;;;;;;5.45;1.10;;;;;;;;;;4978312;28;20038;-70
2023/10/29 07:10:06;;;;;;;5.10;1.05;;;;;;;;;;4979201;28;20024;-70
2023/10/29 07:12:32;;;;;;;5.43;0.88;;;;;;;;;;4978385;28;20505;-70
2023/10/29 07:15:01;;;;;;;5.05;1.33;;;;;;;;;;4978107;28;20663;-70
2023/10/29 07:17:27;;;;;;;5.13;0.88;;;;;;;;;;4979897;28;21015;-70
2023/10/29 07:19:53;;;;;;;5.40;0.90;;;;;;;;;;4977691;28;20034;-70
2023/10/29 07:22:19;;;;;;;4.28;1.00;;;;;;;;;;4979518;28;20034;-70
2023/10/29 07:24:45;;;;;;;2.20;0.98;;;;;;;;;;4977272;28;21758;-70
2023/10/29 07:27:11;;;;;;;2.97;0.60;;;;;;;;;;4980442;28;20384;-71
2023/10/29 07:29:37;;;;;;;5.80;1.25;;;;;;;;;;4976018;28;20052;-70
2023/10/29 07:32:04;;;;;;;4.90;1.00;;;;;;;;;;4979647;28;20118;-69
2023/10/29 07:34:30;;;;;;;7.32;0.85;;;;;;;;;;4978188;28;20029;-70
2023/10/29 07:36:56;;;;;;;5.60;0.90;;;;;;;;;;4981123;28;20037;-69
2023/10/29 07:39:22;;;;;;;6.32;1.05;;;;;;;;;;4981883;28;20541;-70
2023/10/29 07:41:48;;;;;;;6.30;1.23;;;;;;;;;;4980695;28;20030;-69
2023/10/29 07:44:15;;;;;;;4.53;0.88;;;;;;;;;;4993566;28;20034;-70
2023/10/29 07:46:41;;;;;;;5.25;1.20;;;;;;;;;;4981998;28;20034;-69
2023/10/29 07:49:07;;;;;;;3.85;0.95;;;;;;;;;;4982047;28;20037;-69
2023/10/29 07:51:33;;;;;;;5.60;0.95;;;;;;;;;;4982182;28;20144;-70
2023/10/29 07:53:59;;;;;;;3.72;0.90;;;;;;;;;;4982403;28;20034;-69
2023/10/29 07:56:25;;;;;;;3.55;0.90;;;;;;;;;;4982398;28;21831;-71
2023/10/29 07:58:51;;;;;;;6.90;0.90;;;;;;;;;;4980878;28;20149;-70
2023/10/29 08:01:18;;;;;;;4.20;0.80;;;;;;;;;;4982098;28;20022;-70
2023/10/29 08:03:45;;;;;;;1.75;0.70;;;;;;;;;;4980717;28;20077;-70
2023/10/29 08:06:12;;;;;;;4.80;0.70;;;;;;;;;;4983794;28;20927;-69
2023/10/29 08:08:39;;;;;;;10.80;1.48;;;;;;;;;;4996245;28;20030;-70
2023/10/29 08:11:05;;;;;;;3.38;0.85;;;;;;;;;;4981116;28;20671;-70
2023/10/29 08:13:31;;;;;;;4.78;0.98;;;;;;;;;;4983702;28;20034;-70
2023/10/29 08:15:58;;;;;;;6.43;1.38;;;;;;;;;;4980879;28;21123;-69
2023/10/29 08:18:24;;;;;;;6.05;0.95;;;;;;;;;;4983835;28;20489;-70
2023/10/29 08:20:50;;;;;;;6.05;1.17;;;;;;;;;;4981374;28;20703;-69
2023/10/29 08:23:16;;;;;;;5.38;1.05;;;;;;;;;;4982691;28;20034;-70
2023/10/29 08:25:42;;;;;;;7.60;2.03;;;;;;;;;;4980495;28;20057;-70
2023/10/29 08:28:08;;;;;;;5.20;0.90;;;;;;;;;;4980965;28;21237;-70
2023/10/29 08:30:35;;;;;;;7.95;1.65;;;;;;;;;;4982828;28;20041;-70
2023/10/29 08:33:01;;;;;;;6.53;1.17;;;;;;;;;;4980187;28;20053;-68
2023/10/29 08:35:27;;;;;;;4.57;0.80;;;;;;;;;;4983452;28;20784;-69
2023/10/29 08:37:54;;;;;;;8.73;1.70;;;;;;;;;;4980883;28;20096;-69
2023/10/29 08:40:20;;;;;;;8.88;0.90;;;;;;;;;;4980879;28;20026;-69
2023/10/29 08:42:46;;;;;;;6.32;0.95;;;;;;;;;;4997669;28;20102;-69
2023/10/29 08:45:14;;;;;;;7.57;1.00;;;;;;;;;;4980886;28;20037;-69
2023/10/29 08:47:40;;;;;;;5.97;1.20;;;;;;;;;;4982648;28;20504;-69
2023/10/29 08:50:08;;;;;;;6.07;1.00;;;;;;;;;;4980711;28;21844;-69
2023/10/29 08:52:35;;;;;;;6.28;0.80;;;;;;;;;;4981561;28;20054;-68
2023/10/29 08:55:01;;;;;;;6.32;0.90;;;;;;;;;;4981130;28;20069;-69
2023/10/29 08:57:27;;;;;;;3.15;0.85;;;;;;;;;;4980640;28;20038;-69
2023/10/29 08:59:53;;;;;;;7.15;1.35;;;;;;;;;;4980873;28;20604;-69
2023/10/29 09:02:19;;;;;;;7.00;1.10;;;;;;;;;;4980557;28;20049;-70
2023/10/29 09:04:47;;;;;;;5.22;0.90;;;;;;;;;;4981284;28;20045;-70
2023/10/29 09:07:13;;;;;;;12.65;1.08;;;;;;;;;;4979651;28;20693;-68
2023/10/29 09:09:39;;;;;;;4.47;1.30;;;;;;;;;;4981241;28;20030;-68
2023/10/29 09:12:05;;;;;;;6.00;1.17;;;;;;;;;;4981274;28;20056;-69
2023/10/29 09:14:31;;;;;;;4.25;0.77;;;;;;;;;;4978753;28;20046;-69
2023/10/29 09:16:57;;;;;;;7.90;1.38;;;;;;;;;;4982004;28;20104;-68
2023/10/29 09:19:23;;;;;;;4.63;0.90;;;;;;;;;;4980820;28;21235;-69
2023/10/29 09:21:51;;;;;;;7.85;1.25;;;;;;;;;;4981417;28;20038;-68
2023/10/29 09:24:17;;;;;;;10.43;1.30;;;;;;;;;;4979988;28;20036;-68
2023/10/29 09:26:43;;;;;;;5.43;1.05;;;;;;;;;;4981898;28;20116;-69
2023/10/29 09:29:09;;;;;;;7.03;1.10;;;;;;;;;;4980810;28;20057;-69
2023/10/29 09:31:35;;;;;;;6.38;1.42;;;;;;;;;;4980194;28;20042;-69
2023/10/29 09:34:01;;;;;;;6.18;0.98;;;;;;;;;;4980806;28;20034;-69
2023/10/29 09:36:27;;;;;;;7.13;1.20;;;;;;;;;;4994639;28;20045;-69
2023/10/29 09:38:53;;;;;;;6.60;1.10;;;;;;;;;;4980206;28;20045;-69
2023/10/29 09:41:19;;;;;;;4.30;1.13;;;;;;;;;;4979160;28;20084;-70
2023/10/29 09:43:46;;;;;;;6.05;1.20;;;;;;;;;;4981360;28;20409;-69
2023/10/29 09:46:13;;;;;;;7.60;1.65;;;;;;;;;;4979143;28;20026;-69
2023/10/29 09:48:39;;;;;;;4.30;1.10;;;;;;;;;;4982571;28;20084;-69
2023/10/29 09:51:06;;;;;;;3.45;0.75;;;;;;;;;;4979321;28;20697;-69
2023/10/29 09:53:34;;;;;;;7.43;1.10;;;;;;;;;;4979964;28;20310;-69
2023/10/29 09:56:00;;;;;;;6.00;1.17;;;;;;;;;;4979403;28;20030;-70
2023/10/29 09:58:27;;;;;;;6.13;1.33;;;;;;;;;;4990786;28;20037;-69
2023/10/29 10:00:53;;;;;;;6.35;1.00;;;;;;;;;;4980008;28;20128;-69
2023/10/29 10:03:20;;;;;;;15.48;2.03;;;;;;;;;;4979295;28;20034;-69
2023/10/29 10:05:47;;;;;;;6.57;1.33;;;;;;;;;;4981633;28;20754;-68
2023/10/29 10:08:13;;;;;;;7.75;1.20;;;;;;;;;;4980391;28;20027;-68
2023/10/29 10:10:44;;;;;;;6.40;1.25;;;;;;;;;;4980221;28;20041;-68
2023/10/29 10:13:10;;;;;;;4.88;1.20;;;;;;;;;;4978713;28;20121;-68
2023/10/29 10:15:41;;;;;;;5.68;1.23;;;;;;;;;;4976972;28;20037;-69
2023/10/29 10:18:07;;;;;;;5.72;1.33;;;;;;;;;;4980636;28;20033;-69
2023/10/29 10:20:34;;;;;;;5.45;1.10;;;;;;;;;;4978367;28;20041;-68
2023/10/29 10:23:03;;;;;;;8.40;1.00;;;;;;;;;;4979317;28;20080;-69
2023/10/29 10:25:30;;;;;;;5.65;1.08;;;;;;;;;;4978664;28;20036;-69
2023/10/29 10:27:57;;;;;;;3.25;0.95;;;;;;;;;;4978519;28;21826;-69
2023/10/29 10:30:30;;;;;;;5.43;1.08;;;;;;;;;;4979117;28;20088;-69
2023/10/29 10:33:15;;;;;;;5.57;1.45;;;;;;;;;;4979436;28;21840;-67
2023/10/29 10:35:46;;;;;;;5.90;1.25;;;;;;;;;;4979322;28;20026;-68
2023/10/29 10:38:12;;;;;;;12.40;1.88;;;;;;;;;;4994011;28;20030;-69
2023/10/29 10:40:39;;;;;;;3.83;0.88;;;;;;;;;;4981110;28;20068;-69
2023/10/29 10:43:06;;;;;;;10.25;1.42;;;;;;;;;;4978511;28;20030;-67
2023/10/29 10:45:33;;;;;;;6.10;1.40;;;;;;;;;;4979472;28;20117;-68
2023/10/29 10:48:03;;;;;;;8.27;1.13;;;;;;;;;;4991381;28;20049;-69
2023/10/29 10:50:30;;;;;;;5.07;1.15;;;;;;;;;;4980892;28;20033;-68
2023/10/29 10:52:57;;;;;;;7.70;1.02;;;;;;;;;;4980082;28;20056;-67
2023/10/29 10:55:24;;;;;;;5.10;1.20;;;;;;;;;;4979248;28;20568;-68
2023/10/29 10:57:50;;;;;;;9.07;1.33;;;;;;;;;;4980514;28;20160;-69
2023/10/29 11:00:17;;;;;;;7.95;1.00;;;;;;;;;;4977042;28;20073;-68
2023/10/29 11:02:44;;;;;;;14.20;1.85;;;;;;;;;;4980501;28;20026;-68
2023/10/29 11:05:11;;;;;;;5.53;1.50;;;;;;;;;;4980213;28;21016;-69
2023/10/29 11:07:37;;;;;;;6.70;1.70;;;;;;;;;;4979231;28;20046;-69
2023/10/29 11:10:03;;;;;;;9.48;1.60;;;;;;;;;;4999167;28;20041;-68
2023/10/29 11:12:36;;;;;;;8.10;1.63;;;;;;;;;;4981419;28;20108;-68
2023/10/29 11:15:12;;;;;;;3.90;0.95;;;;;;;;;;4983789;28;20125;-68
2023/10/29 11:17:47;;;;;;;9.73;1.73;;;;;;;;;;4981092;28;20053;-69
2023/10/29 11:20:33;;;;;;;11.05;1.98;;;;;;;;;;4982749;28;20512;-70
2023/10/29 11:23:07;;;;;;;10.68;1.70;;;;;;;;;;4981313;28;20096;-69
2023/10/29 11:25:33;;;;;;;8.88;1.60;;;;;;;;;;4984029;28;20018;-68
2023/10/29 11:27:59;;;;;;;8.90;1.38;;;;;;;;;;5001068;28;20034;-68
2023/10/29 11:30:28;;;;;;;7.13;1.45;;;;;;;;;;4982565;28;20030;-68
2023/10/29 11:33:06;;;;;;;8.38;1.60;;;;;;;;;;4983592;28;20041;-69
2023/10/29 11:35:32;;;;;;;7.38;1.50;;;;;;;;;;4981705;28;20056;-69
2023/10/29 11:38:00;;;;;;;11.07;1.60;;;;;;;;;;4982967;28;20041;-69
2023/10/29 11:40:26;;;;;;;11.10;1.65;;;;;;;;;;4980542;28;20490;-68
2023/10/29 11:43:16;;;;;;;9.32;1.90;;;;;;;;;;4992920;28;20160;-69
2023/10/29 11:45:42;;;;;;;6.68;2.05;;;;;;;;;;4985054;28;20046;-68
2023/10/29 11:48:09;;;;;;;7.05;1.40;;;;;;;;;;4983412;28;21008;-68
2023/10/29 11:50:35;;;;;;;7.00;1.77;;;;;;;;;;4982664;28;20032;-67
2023/10/29 11:53:02;;;;;;;7.60;1.48;;;;;;;;;;4981368;28;21185;-68
2023/10/29 11:55:29;;;;;;;7.32;1.55;;;;;;;;;;4992888;28;20060;-68
2023/10/29 11:57:55;;;;;;;9.05;1.80;;;;;;;;;;4980174;28;20458;-68
2023/10/29 12:00:24;;;;;;;7.28;1.80;;;;;;;;;;4982990;28;20057;-69
2023/10/29 12:02:50;;;;;;;10.50;1.60;;;;;;;;;;4981173;28;20033;-68
2023/10/29 12:05:16;;;;;;;7.82;1.58;;;;;;;;;;4982385;28;20045;-69
2023/10/29 12:07:42;;;;;;;10.25;1.73;;;;;;;;;;4982918;28;20138;-69
2023/10/29 12:10:09;;;;;;;7.72;2.10;;;;;;;;;;4980718;28;20034;-69
2023/10/29 12:12:35;;;;;;;5.80;1.33;;;;;;;;;;4982713;28;20042;-69
2023/10/29 12:15:02;;;;;;;14.00;2.58;;;;;;;;;;4984692;28;20042;-68
2023/10/29 12:17:28;;;;;;;8.27;1.38;;;;;;;;;;4981467;28;20085;-69
2023/10/29 12:19:55;;;;;;;13.98;2.50;;;;;;;;;;4980124;28;20057;-69
2023/10/29 12:22:22;;;;;;;10.68;1.88;;;;;;;;;;4980220;28;20891;-68
2023/10/29 12:24:58;;;;;;;13.82;1.83;;;;;;;;;;4983289;28;20673;-68
2023/10/29 12:27:25;;;;;;;10.50;1.77;;;;;;;;;;4983039;28;20741;-69
2023/10/29 12:29:51;;;;;;;10.02;2.00;;;;;;;;;;4982303;28;20033;-70
2023/10/29 12:32:18;;;;;;;7.95;1.55;;;;;;;;;;4980471;28;21030;-68
2023/10/29 12:34:51;;;;;;;9.13;1.95;;;;;;;;;;4981265;28;20080;-68
2023/10/29 12:37:21;;;;;;;5.97;1.30;;;;;;;;;;4978990;28;21064;-68
2023/10/29 12:39:48;;;;;;;9.40;1.77;;;;;;;;;;4992684;28;20085;-69
2023/10/29 12:42:14;;;;;;;11.23;2.67;;;;;;;;;;4980227;28;20031;-69
2023/10/29 12:44:50;;;;;;;10.10;1.70;;;;;;;;;;4982078;28;20029;-69
2023/10/29 12:47:16;;;;;;;9.27;1.55;;;;;;;;;;4982044;28;20038;-69
2023/10/29 12:49:42;;;;;;;12.73;2.30;;;;;;;;;;4980136;28;20654;-69
2023/10/29 12:52:14;;;;;;;11.50;2.42;;;;;;;;;;4981304;28;20050;-69
2023/10/29 12:54:44;;;;;;;10.20;2.17;;;;;;;;;;4980423;28;20042;-69
2023/10/29 12:57:15;;;;;;;9.25;1.77;;;;;;;;;;4980966;28;20226;-69
2023/10/29 12:59:43;;;;;;;11.63;1.58;;;;;;;;;;4980736;28;20050;-69
2023/10/29 13:02:20;;;;;;;16.23;2.25;;;;;;;;;;4981787;28;20030;-68
2023/10/29 13:04:48;;;;;;;10.13;1.80;;;;;;;;;;4981049;28;20022;-68
2023/10/29 13:07:17;;;;;;;11.35;2.30;;;;;;;;;;4982045;28;20030;-68
2023/10/29 13:09:43;;;;;;;9.73;2.03;;;;;;;;;;4982386;28;20505;-68
2023/10/29 13:12:10;;;;;;;10.90;1.42;;;;;;;;;;4981102;28;20026;-68
2023/10/29 13:14:36;;;;;;;9.82;2.08;;;;;;;;;;4979212;28;21280;-68
2023/10/29 13:17:03;;;;;;;13.27;1.88;;;;;;;;;;4979285;28;20037;-68
2023/10/29 13:19:29;;;;;;;8.48;1.67;;;;;;;;;;4980607;28;20041;-68
2023/10/29 13:21:56;;;;;;;8.00;2.00;;;;;;;;;;4979744;28;20117;-68
2023/10/29 13:24:22;;;;;;;9.15;1.83;;;;;;;;;;4979939;28;20413;-68
2023/10/29 13:26:50;;;;;;;8.43;1.60;;;;;;;;;;4980127;28;20054;-68
2023/10/29 13:29:17;;;;;;;10.25;1.55;;;;;;;;;;4979492;28;20041;-68
2023/10/29 13:31:45;;;;;;;6.95;1.70;;;;;;;;;;4979518;28;20026;-68
2023/10/29 13:34:13;;;;;;;6.85;1.83;;;;;;;;;;4979872;28;21822;-68
2023/10/29 13:36:39;;;;;;;6.95;1.30;;;;;;;;;;4999854;28;20033;-68
2023/10/29 13:39:06;;;;;;;7.80;1.60;;;;;;;;;;4981404;28;20041;-68
2023/10/29 13:41:32;;;;;;;9.65;1.45;;;;;;;;;;4979146;28;20037;-68
2023/10/29 13:43:58;;;;;;;9.55;1.48;;;;;;;;;;4980425;28;20935;-68
2023/10/29 13:46:25;;;;;;;10.85;2.72;;;;;;;;;;4980519;28;21627;-68
2023/10/29 13:48:53;;;;;;;8.65;2.15;;;;;;;;;;4980392;28;20037;-68
2023/10/29 13:51:20;;;;;;;7.97;1.60;;;;;;;;;;4977751;28;20120;-68
2023/10/29 13:53:46;;;;;;;8.13;1.30;;;;;;;;;;4981385;28;20068;-68
2023/10/29 13:56:12;;;;;;;8.63;1.65;;;;;;;;;;4979937;28;20097;-68
2023/10/29 13:58:39;;;;;;;10.77;1.90;;;;;;;;;;4981751;28;20091;-69
2023/10/29 14:01:05;;;;;;;6.00;1.40;;;;;;;;;;4980168;28;20058;-68
2023/10/29 14:03:32;;;;;;;8.63;1.42;;;;;;;;;;4979584;28;20144;-68
2023/10/29 14:05:58;;;;;;;8.45;1.70;;;;;;;;;;4980017;28;20038;-68
2023/10/29 14:08:24;;;;;;;10.77;1.85;;;;;;;;;;4978010;28;20052;-68
2023/10/29 14:10:50;;;;;;;8.00;1.70;;;;;;;;;;4981449;28;20042;-68
2023/10/29 14:13:16;;;;;;;7.13;1.50;;;;;;;;;;4980004;28;20038;-68
2023/10/29 14:15:43;;;;;;;12.98;2.65;;;;;;;;;;4980266;28;20061;-68
2023/10/29 14:18:09;;;;;;;12.93;2.10;;;;;;;;;;4979685;28;20122;-68
2023/10/29 14:20:35;;;;;;;9.77;2.33;;;;;;;;;;4978470;28;20061;-68
2023/10/29 14:23:01;;;;;;;7.32;1.70;;;;;;;;;;4980150;28;20032;-68
2023/10/29 14:25:27;;;;;;;14.63;2.40;;;;;;;;;;4978251;28;21022;-68
2023/10/29 14:27:53;;;;;;;9.48;1.75;;;;;;;;;;4980094;28;20797;-68
2023/10/29 14:30:19;;;;;;;11.27;1.98;;;;;;;;;;4979848;28;20113;-68
2023/10/29 14:32:45;;;;;;;10.27;1.92;;;;;;;;;;4981744;28;20072;-68
2023/10/29 14:35:12;;;;;;;13.07;2.45;;;;;;;;;;4979590;28;20042;-68
2023/10/29 14:37:38;;;;;;;9.40;1.50;;;;;;;;;;4979585;28;20042;-68